sensor_id;sensor_type;location;lat;lon;timestamp;temperature;humidity
6118;DHT22;3089;48.202;11.510;2022-12-18T00:01:28;-3.60;99.90
6118;DHT22;3089;48.202;11.510;2022-12-18T00:03:58;-3.60;99.90
6118;DHT22;3089;48.202;11.510;2022-12-18T00:06:27;-3.80;99.90
6118;DHT22;3089;48.202;11.510;2022-12-18T00:08:57;-4.10;99.90
6118;DHT22;3089;48.202;11.510;2022-12-18T00:11:28;-4.00;99.90
6118;DHT22;3089;48.202;11.510;2022-12-18T00:13:58;-3.00;99.90
6118;DHT22;3089;48.202;11.510;2022-12-18T00:16:29;-2.90;99.90
6118;DHT22;3089;48.202;11.510;2022-12-18T00:19:00;-4.80;99.90
6118;DHT22;3089;48.202;11.510;2022-12-18T00:21:29;-4.60;99.90
6118;DHT22;3089;48.202;11.510;2022-12-18T00:23:58;-5.40;99.90
6118;DHT22;3089;48.202;11.510;2022-12-18T00:26:28;-5.00;99.90
6118;DHT22;3089;48.202;11.510;2022-12-18T00:28:58;-5.10;99.90
6118;DHT22;3089;48.202;11.510;2022-12-18T00:31:28;-4.40;99.90
6118;DHT22;3089;48.202;11.510;2022-12-18T00:33:57;-4.00;99.90
6118;DHT22;3089;48.202;11.510;2022-12-18T00:36:28;-4.70;99.90
6118;DHT22;3089;48.202;11.510;2022-12-18T00:38:57;-4.50;99.90
6118;DHT22;3089;48.202;11.510;2022-12-18T00:41:25;-4.60;99.90
6118;DHT22;3089;48.202;11.510;2022-12-18T00:44:13;-5.10;99.90
6118;DHT22;3089;48.202;11.510;2022-12-18T00:46:43;-4.90;99.90
6118;DHT22;3089;48.202;11.510;2022-12-18T00:49:11;-4.10;99.90
6118;DHT22;3089;48.202;11.510;2022-12-18T00:51:40;-3.80;99.90
6118;DHT22;3089;48.202;11.510;2022-12-18T00:54:10;-4.80;99.90
6118;DHT22;3089;48.202;11.510;2022-12-18T00:56:38;-5.00;99.90
6118;DHT22;3089;48.202;11.510;2022-12-18T00:59:14;-5.60;99.90
6118;DHT22;3089;48.202;11.510;2022-12-18T01:01:44;-4.80;99.90
6118;DHT22;3089;48.202;11.510;2022-12-18T01:04:13;-5.00;99.90
6118;DHT22;3089;48.202;11.510;2022-12-18T01:06:41;-4.40;99.90
6118;DHT22;3089;48.202;11.510;2022-12-18T01:09:10;-4.30;99.90
6118;DHT22;3089;48.202;11.510;2022-12-18T01:11:38;-4.40;99.90
6118;DHT22;3089;48.202;11.510;2022-12-18T01:14:06;-4.10;99.90
6118;DHT22;3089;48.202;11.510;2022-12-18T01:16:34;-4.30;99.90
6118;DHT22;3089;48.202;11.510;2022-12-18T01:19:03;-4.20;99.90
6118;DHT22;3089;48.202;11.510;2022-12-18T01:21:31;-4.50;99.90
6118;DHT22;3089;48.202;11.510;2022-12-18T01:23:59;-3.90;99.90
6118;DHT22;3089;48.202;11.510;2022-12-18T01:26:28;-3.50;99.90
6118;DHT22;3089;48.202;11.510;2022-12-18T01:28:57;-3.40;99.90
6118;DHT22;3089;48.202;11.510;2022-12-18T01:31:26;-3.70;99.90
6118;DHT22;3089;48.202;11.510;2022-12-18T01:33:55;-3.20;99.90
6118;DHT22;3089;48.202;11.510;2022-12-18T01:36:27;-3.30;99.90
6118;DHT22;3089;48.202;11.510;2022-12-18T01:38:56;-4.40;99.90
6118;DHT22;3089;48.202;11.510;2022-12-18T01:41:26;-5.30;99.90
6118;DHT22;3089;48.202;11.510;2022-12-18T01:47:21;-5.00;99.90
6118;DHT22;3089;48.202;11.510;2022-12-18T01:49:51;-4.70;99.90
6118;DHT22;3089;48.202;11.510;2022-12-18T01:52:21;-4.80;99.90
6118;DHT22;3089;48.202;11.510;2022-12-18T01:54:50;-5.20;99.90
6118;DHT22;3089;48.202;11.510;2022-12-18T01:57:20;-5.30;99.90
6118;DHT22;3089;48.202;11.510;2022-12-18T01:59:51;-3.90;99.90
6118;DHT22;3089;48.202;11.510;2022-12-18T02:02:20;-3.80;99.90
6118;DHT22;3089;48.202;11.510;2022-12-18T02:04:48;-4.20;99.90
6118;DHT22;3089;48.202;11.510;2022-12-18T02:07:23;-3.60;99.90
6118;DHT22;3089;48.202;11.510;2022-12-18T02:09:58;-4.30;99.90
6118;DHT22;3089;48.202;11.510;2022-12-18T02:12:30;-4.80;99.90
6118;DHT22;3089;48.202;11.510;2022-12-18T02:15:07;-4.50;99.90
6118;DHT22;3089;48.202;11.510;2022-12-18T02:17:39;-4.10;99.90
6118;DHT22;3089;48.202;11.510;2022-12-18T02:20:15;-4.50;99.90
6118;DHT22;3089;48.202;11.510;2022-12-18T02:22:55;-4.40;99.90
6118;DHT22;3089;48.202;11.510;2022-12-18T02:25:39;-4.30;99.90
6118;DHT22;3089;48.202;11.510;2022-12-18T02:28:12;-5.00;99.90
6118;DHT22;3089;48.202;11.510;2022-12-18T02:30:42;-5.00;99.90
6118;DHT22;3089;48.202;11.510;2022-12-18T02:33:11;-4.30;99.90
6118;DHT22;3089;48.202;11.510;2022-12-18T02:35:41;-4.50;99.90
6118;DHT22;3089;48.202;11.510;2022-12-18T02:38:10;-4.90;99.90
6118;DHT22;3089;48.202;11.510;2022-12-18T02:40:40;-4.20;99.90
6118;DHT22;3089;48.202;11.510;2022-12-18T02:43:11;-4.50;99.90
6118;DHT22;3089;48.202;11.510;2022-12-18T02:45:46;-4.40;99.90
6118;DHT22;3089;48.202;11.510;2022-12-18T02:48:15;-5.00;99.90
6118;DHT22;3089;48.202;11.510;2022-12-18T02:50:46;-5.20;99.90
6118;DHT22;3089;48.202;11.510;2022-12-18T02:53:24;-4.60;99.90
6118;DHT22;3089;48.202;11.510;2022-12-18T02:55:59;-4.60;99.90
6118;DHT22;3089;48.202;11.510;2022-12-18T02:58:38;-4.50;99.90
6118;DHT22;3089;48.202;11.510;2022-12-18T03:01:13;-4.50;99.90
6118;DHT22;3089;48.202;11.510;2022-12-18T03:03:47;-5.10;99.90
6118;DHT22;3089;48.202;11.510;2022-12-18T03:06:21;-5.00;99.90
6118;DHT22;3089;48.202;11.510;2022-12-18T03:08:56;-4.50;99.90
6118;DHT22;3089;48.202;11.510;2022-12-18T03:11:26;-4.80;99.90
6118;DHT22;3089;48.202;11.510;2022-12-18T03:14:13;-4.80;99.90
6118;DHT22;3089;48.202;11.510;2022-12-18T03:16:43;-4.40;99.90
6118;DHT22;3089;48.202;11.510;2022-12-18T03:19:15;-4.60;99.90
6118;DHT22;3089;48.202;11.510;2022-12-18T03:21:46;-5.20;99.90
6118;DHT22;3089;48.202;11.510;2022-12-18T03:24:15;-5.00;99.90
6118;DHT22;3089;48.202;11.510;2022-12-18T03:26:47;-4.70;99.90
6118;DHT22;3089;48.202;11.510;2022-12-18T03:29:20;-5.40;99.90
6118;DHT22;3089;48.202;11.510;2022-12-18T03:31:53;-4.60;99.90
6118;DHT22;3089;48.202;11.510;2022-12-18T03:34:28;-4.50;99.90
6118;DHT22;3089;48.202;11.510;2022-12-18T03:36:57;-5.40;99.90
6118;DHT22;3089;48.202;11.510;2022-12-18T03:39:25;-5.10;99.90
6118;DHT22;3089;48.202;11.510;2022-12-18T03:41:57;-4.60;99.90
6118;DHT22;3089;48.202;11.510;2022-12-18T03:44:35;-4.20;99.90
6118;DHT22;3089;48.202;11.510;2022-12-18T03:47:08;-5.10;99.90
6118;DHT22;3089;48.202;11.510;2022-12-18T03:49:41;-5.40;99.90
6118;DHT22;3089;48.202;11.510;2022-12-18T03:52:15;-4.70;99.90
6118;DHT22;3089;48.202;11.510;2022-12-18T03:54:45;-4.00;99.90
6118;DHT22;3089;48.202;11.510;2022-12-18T03:57:16;-4.60;99.90
6118;DHT22;3089;48.202;11.510;2022-12-18T03:59:49;-4.40;99.90
6118;DHT22;3089;48.202;11.510;2022-12-18T04:02:18;-4.70;99.90
6118;DHT22;3089;48.202;11.510;2022-12-18T04:04:48;-4.90;99.90
6118;DHT22;3089;48.202;11.510;2022-12-18T04:07:18;-4.70;99.90
6118;DHT22;3089;48.202;11.510;2022-12-18T04:09:48;-4.60;99.90
6118;DHT22;3089;48.202;11.510;2022-12-18T04:12:17;-4.80;99.90
6118;DHT22;3089;48.202;11.510;2022-12-18T04:14:46;-5.20;99.90
6118;DHT22;3089;48.202;11.510;2022-12-18T04:17:14;-5.00;99.90
6118;DHT22;3089;48.202;11.510;2022-12-18T04:19:42;-5.40;99.90
6118;DHT22;3089;48.202;11.510;2022-12-18T04:22:10;-4.70;99.90
6118;DHT22;3089;48.202;11.510;2022-12-18T04:24:38;-3.70;99.90
6118;DHT22;3089;48.202;11.510;2022-12-18T04:27:06;-4.00;99.90
6118;DHT22;3089;48.202;11.510;2022-12-18T04:29:34;-3.70;99.90
6118;DHT22;3089;48.202;11.510;2022-12-18T04:32:03;-4.40;99.90
6118;DHT22;3089;48.202;11.510;2022-12-18T04:34:31;-4.50;99.90
6118;DHT22;3089;48.202;11.510;2022-12-18T04:36:59;-4.00;99.90
6118;DHT22;3089;48.202;11.510;2022-12-18T04:39:27;-3.80;99.90
6118;DHT22;3089;48.202;11.510;2022-12-18T04:41:55;-4.30;99.90
6118;DHT22;3089;48.202;11.510;2022-12-18T04:44:23;-4.90;99.90
6118;DHT22;3089;48.202;11.510;2022-12-18T04:46:50;-4.10;99.90
6118;DHT22;3089;48.202;11.510;2022-12-18T04:49:20;-4.60;99.90
6118;DHT22;3089;48.202;11.510;2022-12-18T04:51:48;-4.60;99.90
6118;DHT22;3089;48.202;11.510;2022-12-18T04:54:16;-3.90;99.90
6118;DHT22;3089;48.202;11.510;2022-12-18T04:56:43;-4.70;99.90
6118;DHT22;3089;48.202;11.510;2022-12-18T04:59:11;-4.50;99.90
6118;DHT22;3089;48.202;11.510;2022-12-18T05:01:39;-4.60;99.90
6118;DHT22;3089;48.202;11.510;2022-12-18T05:04:08;-4.10;99.90
6118;DHT22;3089;48.202;11.510;2022-12-18T05:06:37;-5.00;99.90
6118;DHT22;3089;48.202;11.510;2022-12-18T05:09:05;-5.30;99.90
6118;DHT22;3089;48.202;11.510;2022-12-18T05:11:33;-4.40;99.90
6118;DHT22;3089;48.202;11.510;2022-12-18T05:14:00;-4.00;99.90
6118;DHT22;3089;48.202;11.510;2022-12-18T05:16:28;-4.80;99.90
6118;DHT22;3089;48.202;11.510;2022-12-18T05:18:56;-5.40;99.90
6118;DHT22;3089;48.202;11.510;2022-12-18T05:21:24;-4.20;99.90
6118;DHT22;3089;48.202;11.510;2022-12-18T05:23:53;-5.10;99.90
6118;DHT22;3089;48.202;11.510;2022-12-18T05:26:21;-4.90;99.90
6118;DHT22;3089;48.202;11.510;2022-12-18T05:28:49;-4.60;99.90
6118;DHT22;3089;48.202;11.510;2022-12-18T05:31:17;-4.10;99.90
6118;DHT22;3089;48.202;11.510;2022-12-18T05:33:45;-4.40;99.90
6118;DHT22;3089;48.202;11.510;2022-12-18T05:36:13;-4.40;99.90
6118;DHT22;3089;48.202;11.510;2022-12-18T05:38:40;-4.50;99.90
6118;DHT22;3089;48.202;11.510;2022-12-18T05:41:10;-4.50;99.90
6118;DHT22;3089;48.202;11.510;2022-12-18T05:43:38;-4.40;99.90
6118;DHT22;3089;48.202;11.510;2022-12-18T05:46:11;-4.20;99.90
6118;DHT22;3089;48.202;11.510;2022-12-18T05:48:39;-4.70;99.90
6118;DHT22;3089;48.202;11.510;2022-12-18T05:51:09;-4.20;99.90
6118;DHT22;3089;48.202;11.510;2022-12-18T05:53:37;-4.30;99.90
6118;DHT22;3089;48.202;11.510;2022-12-18T05:56:08;-4.00;99.90
6118;DHT22;3089;48.202;11.510;2022-12-18T05:58:38;-4.30;99.90
6118;DHT22;3089;48.202;11.510;2022-12-18T06:01:08;-4.60;99.90
6118;DHT22;3089;48.202;11.510;2022-12-18T06:03:37;-4.90;99.90
6118;DHT22;3089;48.202;11.510;2022-12-18T06:06:13;-4.80;99.90
6118;DHT22;3089;48.202;11.510;2022-12-18T06:08:41;-4.80;99.90
6118;DHT22;3089;48.202;11.510;2022-12-18T06:11:12;-4.40;99.90
6118;DHT22;3089;48.202;11.510;2022-12-18T06:13:41;-3.90;99.90
6118;DHT22;3089;48.202;11.510;2022-12-18T06:16:09;-3.70;99.90
6118;DHT22;3089;48.202;11.510;2022-12-18T06:18:37;-4.20;99.90
6118;DHT22;3089;48.202;11.510;2022-12-18T06:21:05;-4.50;99.90
6118;DHT22;3089;48.202;11.510;2022-12-18T06:23:33;-4.70;99.90
6118;DHT22;3089;48.202;11.510;2022-12-18T06:26:04;-5.00;99.90
6118;DHT22;3089;48.202;11.510;2022-12-18T06:28:32;-5.30;99.90
6118;DHT22;3089;48.202;11.510;2022-12-18T06:31:02;-5.10;99.90
6118;DHT22;3089;48.202;11.510;2022-12-18T06:33:31;-4.30;99.90
6118;DHT22;3089;48.202;11.510;2022-12-18T06:36:01;-4.70;99.90
6118;DHT22;3089;48.202;11.510;2022-12-18T06:38:29;-4.50;99.90
6118;DHT22;3089;48.202;11.510;2022-12-18T06:40:57;-3.90;99.90
6118;DHT22;3089;48.202;11.510;2022-12-18T06:43:25;-4.70;99.90
6118;DHT22;3089;48.202;11.510;2022-12-18T06:45:59;-5.00;99.90
6118;DHT22;3089;48.202;11.510;2022-12-18T06:48:28;-4.30;99.90
6118;DHT22;3089;48.202;11.510;2022-12-18T06:50:56;-3.80;99.90
6118;DHT22;3089;48.202;11.510;2022-12-18T06:53:24;-3.30;99.90
6118;DHT22;3089;48.202;11.510;2022-12-18T06:55:51;-3.10;99.90
6118;DHT22;3089;48.202;11.510;2022-12-18T06:58:19;-4.10;99.90
6118;DHT22;3089;48.202;11.510;2022-12-18T07:00:47;-3.70;99.90
6118;DHT22;3089;48.202;11.510;2022-12-18T07:03:15;-4.00;99.90
6118;DHT22;3089;48.202;11.510;2022-12-18T07:05:44;-4.50;99.90
6118;DHT22;3089;48.202;11.510;2022-12-18T07:08:12;-4.40;99.90
6118;DHT22;3089;48.202;11.510;2022-12-18T07:10:43;-3.80;99.90
6118;DHT22;3089;48.202;11.510;2022-12-18T07:13:15;-3.90;99.90
6118;DHT22;3089;48.202;11.510;2022-12-18T07:15:43;-3.40;99.90
6118;DHT22;3089;48.202;11.510;2022-12-18T07:18:11;-3.00;99.90
6118;DHT22;3089;48.202;11.510;2022-12-18T07:20:39;-3.20;99.90
6118;DHT22;3089;48.202;11.510;2022-12-18T07:23:08;-3.10;99.90
6118;DHT22;3089;48.202;11.510;2022-12-18T07:25:36;-3.50;99.90
6118;DHT22;3089;48.202;11.510;2022-12-18T07:28:04;-3.10;99.90
6118;DHT22;3089;48.202;11.510;2022-12-18T07:30:32;-4.60;99.90
6118;DHT22;3089;48.202;11.510;2022-12-18T07:33:00;-4.30;99.90
6118;DHT22;3089;48.202;11.510;2022-12-18T07:35:28;-4.50;99.90
6118;DHT22;3089;48.202;11.510;2022-12-18T07:37:55;-4.20;99.90
6118;DHT22;3089;48.202;11.510;2022-12-18T07:40:25;-3.80;99.90
6118;DHT22;3089;48.202;11.510;2022-12-18T07:42:52;-4.30;99.90
6118;DHT22;3089;48.202;11.510;2022-12-18T07:45:20;-4.80;99.90
6118;DHT22;3089;48.202;11.510;2022-12-18T07:47:48;-4.20;99.90
6118;DHT22;3089;48.202;11.510;2022-12-18T07:50:16;-4.70;99.90
6118;DHT22;3089;48.202;11.510;2022-12-18T07:52:44;-3.90;99.90
6118;DHT22;3089;48.202;11.510;2022-12-18T07:55:11;-3.30;99.90
6118;DHT22;3089;48.202;11.510;2022-12-18T07:57:40;-3.40;99.90
6118;DHT22;3089;48.202;11.510;2022-12-18T08:00:19;-4.10;99.90
6118;DHT22;3089;48.202;11.510;2022-12-18T08:02:47;-4.30;99.90
6118;DHT22;3089;48.202;11.510;2022-12-18T08:05:15;-4.70;99.90
6118;DHT22;3089;48.202;11.510;2022-12-18T08:07:43;-5.00;99.90
6118;DHT22;3089;48.202;11.510;2022-12-18T08:10:11;-4.90;99.90
6118;DHT22;3089;48.202;11.510;2022-12-18T08:12:40;-4.80;99.90
6118;DHT22;3089;48.202;11.510;2022-12-18T08:15:09;-4.90;99.90
6118;DHT22;3089;48.202;11.510;2022-12-18T08:17:37;-4.50;99.90
6118;DHT22;3089;48.202;11.510;2022-12-18T08:20:05;-4.10;99.90
6118;DHT22;3089;48.202;11.510;2022-12-18T08:22:34;-4.90;99.90
6118;DHT22;3089;48.202;11.510;2022-12-18T08:25:06;-4.50;99.90
6118;DHT22;3089;48.202;11.510;2022-12-18T08:27:34;-4.10;99.90
6118;DHT22;3089;48.202;11.510;2022-12-18T08:30:04;-3.90;99.90
6118;DHT22;3089;48.202;11.510;2022-12-18T08:32:33;-3.80;99.90
6118;DHT22;3089;48.202;11.510;2022-12-18T08:35:01;-4.70;99.90
6118;DHT22;3089;48.202;11.510;2022-12-18T08:37:28;-4.90;99.90
6118;DHT22;3089;48.202;11.510;2022-12-18T08:39:56;-5.00;99.90
6118;DHT22;3089;48.202;11.510;2022-12-18T08:42:24;-5.10;99.90
6118;DHT22;3089;48.202;11.510;2022-12-18T08:45:11;-4.70;99.90
6118;DHT22;3089;48.202;11.510;2022-12-18T08:47:38;-4.30;99.90
6118;DHT22;3089;48.202;11.510;2022-12-18T08:50:07;-4.00;99.90
6118;DHT22;3089;48.202;11.510;2022-12-18T08:52:35;-4.10;99.90
6118;DHT22;3089;48.202;11.510;2022-12-18T08:55:03;-3.90;99.90
6118;DHT22;3089;48.202;11.510;2022-12-18T08:57:31;-4.10;99.90
6118;DHT22;3089;48.202;11.510;2022-12-18T08:59:59;-4.30;99.90
6118;DHT22;3089;48.202;11.510;2022-12-18T09:02:28;-4.10;99.90
6118;DHT22;3089;48.202;11.510;2022-12-18T09:04:56;-4.70;99.90
6118;DHT22;3089;48.202;11.510;2022-12-18T09:07:24;-4.00;99.90
6118;DHT22;3089;48.202;11.510;2022-12-18T09:09:52;-4.40;99.90
6118;DHT22;3089;48.202;11.510;2022-12-18T09:12:20;-3.50;99.90
6118;DHT22;3089;48.202;11.510;2022-12-18T09:14:48;-3.40;99.90
6118;DHT22;3089;48.202;11.510;2022-12-18T09:17:16;-3.80;99.90
6118;DHT22;3089;48.202;11.510;2022-12-18T09:19:45;-4.80;99.90
6118;DHT22;3089;48.202;11.510;2022-12-18T09:22:13;-4.60;99.90
6118;DHT22;3089;48.202;11.510;2022-12-18T09:24:41;-3.40;99.90
6118;DHT22;3089;48.202;11.510;2022-12-18T09:27:08;-4.00;99.90
6118;DHT22;3089;48.202;11.510;2022-12-18T09:29:36;-4.90;99.90
6118;DHT22;3089;48.202;11.510;2022-12-18T09:32:05;-4.80;99.90
6118;DHT22;3089;48.202;11.510;2022-12-18T09:34:32;-4.80;99.90
6118;DHT22;3089;48.202;11.510;2022-12-18T09:37:02;-4.70;99.90
6118;DHT22;3089;48.202;11.510;2022-12-18T09:39:29;-4.70;99.90
6118;DHT22;3089;48.202;11.510;2022-12-18T09:41:58;-4.40;99.90
6118;DHT22;3089;48.202;11.510;2022-12-18T09:44:29;-3.70;99.90
6118;DHT22;3089;48.202;11.510;2022-12-18T09:47:08;-4.50;99.90
6118;DHT22;3089;48.202;11.510;2022-12-18T09:49:40;-4.70;99.90
6118;DHT22;3089;48.202;11.510;2022-12-18T09:52:14;-4.80;99.90
6118;DHT22;3089;48.202;11.510;2022-12-18T09:54:46;-4.70;99.90
6118;DHT22;3089;48.202;11.510;2022-12-18T09:57:17;-4.90;99.90
6118;DHT22;3089;48.202;11.510;2022-12-18T09:59:50;-4.70;99.90
6118;DHT22;3089;48.202;11.510;2022-12-18T10:02:21;-4.50;99.90
6118;DHT22;3089;48.202;11.510;2022-12-18T10:04:59;-4.40;99.90
6118;DHT22;3089;48.202;11.510;2022-12-18T10:07:38;-4.60;99.90
6118;DHT22;3089;48.202;11.510;2022-12-18T10:10:14;-3.80;99.90
6118;DHT22;3089;48.202;11.510;2022-12-18T10:12:48;-3.30;99.90
6118;DHT22;3089;48.202;11.510;2022-12-18T10:15:25;-2.90;99.90
6118;DHT22;3089;48.202;11.510;2022-12-18T10:18:00;-3.20;99.90
6118;DHT22;3089;48.202;11.510;2022-12-18T10:20:34;-3.30;99.90
6118;DHT22;3089;48.202;11.510;2022-12-18T10:23:14;-4.30;99.90
6118;DHT22;3089;48.202;11.510;2022-12-18T10:25:52;-3.70;99.90
6118;DHT22;3089;48.202;11.510;2022-12-18T10:28:22;-3.00;99.90
6118;DHT22;3089;48.202;11.510;2022-12-18T10:30:50;-3.50;99.90
6118;DHT22;3089;48.202;11.510;2022-12-18T10:33:20;-3.20;99.90
6118;DHT22;3089;48.202;11.510;2022-12-18T10:35:50;-3.30;99.90
6118;DHT22;3089;48.202;11.510;2022-12-18T10:38:25;-4.50;99.90
6118;DHT22;3089;48.202;11.510;2022-12-18T10:40:55;-4.20;99.90
6118;DHT22;3089;48.202;11.510;2022-12-18T10:43:25;-3.50;99.90
6118;DHT22;3089;48.202;11.510;2022-12-18T10:46:00;-3.60;99.90
6118;DHT22;3089;48.202;11.510;2022-12-18T10:48:30;-4.40;99.90
6118;DHT22;3089;48.202;11.510;2022-12-18T10:51:01;-4.20;99.90
6118;DHT22;3089;48.202;11.510;2022-12-18T10:53:41;-4.10;99.90
6118;DHT22;3089;48.202;11.510;2022-12-18T10:56:10;-4.30;99.90
6118;DHT22;3089;48.202;11.510;2022-12-18T10:58:39;-4.40;99.90
6118;DHT22;3089;48.202;11.510;2022-12-18T11:01:10;-4.30;99.90
6118;DHT22;3089;48.202;11.510;2022-12-18T11:03:40;-4.20;99.90
6118;DHT22;3089;48.202;11.510;2022-12-18T11:06:10;-4.40;99.90
6118;DHT22;3089;48.202;11.510;2022-12-18T11:08:41;-4.30;99.90
6118;DHT22;3089;48.202;11.510;2022-12-18T11:11:18;-4.70;99.90
6118;DHT22;3089;48.202;11.510;2022-12-18T11:13:58;-4.80;99.90
6118;DHT22;3089;48.202;11.510;2022-12-18T11:16:30;-4.60;99.90
6118;DHT22;3089;48.202;11.510;2022-12-18T11:19:13;-4.20;99.90
6118;DHT22;3089;48.202;11.510;2022-12-18T11:21:43;-4.40;99.90
6118;DHT22;3089;48.202;11.510;2022-12-18T11:24:20;-4.70;99.90
6118;DHT22;3089;48.202;11.510;2022-12-18T11:26:50;-3.80;99.90
6118;DHT22;3089;48.202;11.510;2022-12-18T11:29:31;-3.90;99.90
6118;DHT22;3089;48.202;11.510;2022-12-18T11:32:27;-3.50;99.90
6118;DHT22;3089;48.202;11.510;2022-12-18T11:35:07;-3.90;99.90
6118;DHT22;3089;48.202;11.510;2022-12-18T11:37:36;-4.30;99.90
6118;DHT22;3089;48.202;11.510;2022-12-18T11:40:13;-4.30;99.90
6118;DHT22;3089;48.202;11.510;2022-12-18T11:42:45;-3.10;99.90
6118;DHT22;3089;48.202;11.510;2022-12-18T11:45:27;-3.10;99.90
6118;DHT22;3089;48.202;11.510;2022-12-18T11:47:59;-4.10;99.90
6118;DHT22;3089;48.202;11.510;2022-12-18T11:50:33;-4.10;99.90
6118;DHT22;3089;48.202;11.510;2022-12-18T11:53:09;-4.00;99.90
6118;DHT22;3089;48.202;11.510;2022-12-18T11:55:43;-4.40;99.90
6118;DHT22;3089;48.202;11.510;2022-12-18T11:58:17;-4.60;99.90
6118;DHT22;3089;48.202;11.510;2022-12-18T12:00:56;-4.30;99.90
6118;DHT22;3089;48.202;11.510;2022-12-18T12:03:42;-3.40;99.90
6118;DHT22;3089;48.202;11.510;2022-12-18T12:06:21;-4.50;99.90
6118;DHT22;3089;48.202;11.510;2022-12-18T12:09:04;-4.60;99.90
6118;DHT22;3089;48.202;11.510;2022-12-18T12:11:45;-3.90;99.90
6118;DHT22;3089;48.202;11.510;2022-12-18T12:14:43;-3.10;99.90
6118;DHT22;3089;48.202;11.510;2022-12-18T12:17:20;-3.40;99.90
6118;DHT22;3089;48.202;11.510;2022-12-18T12:19:58;-3.70;99.90
6118;DHT22;3089;48.202;11.510;2022-12-18T12:22:34;-3.60;99.90
6118;DHT22;3089;48.202;11.510;2022-12-18T12:25:20;-4.20;99.90
6118;DHT22;3089;48.202;11.510;2022-12-18T12:28:00;-3.90;99.90
6118;DHT22;3089;48.202;11.510;2022-12-18T12:30:39;-4.40;99.90
6118;DHT22;3089;48.202;11.510;2022-12-18T12:33:15;-4.40;99.90
6118;DHT22;3089;48.202;11.510;2022-12-18T12:35:52;-3.50;99.90
6118;DHT22;3089;48.202;11.510;2022-12-18T12:38:25;-3.50;99.90
6118;DHT22;3089;48.202;11.510;2022-12-18T12:41:00;-3.40;99.90
6118;DHT22;3089;48.202;11.510;2022-12-18T12:43:37;-3.10;99.90
6118;DHT22;3089;48.202;11.510;2022-12-18T12:46:17;-3.50;99.90
6118;DHT22;3089;48.202;11.510;2022-12-18T12:48:50;-2.60;99.90
6118;DHT22;3089;48.202;11.510;2022-12-18T12:51:22;-2.60;99.90
6118;DHT22;3089;48.202;11.510;2022-12-18T12:53:52;-2.70;99.90
6118;DHT22;3089;48.202;11.510;2022-12-18T12:56:21;-3.40;99.90
6118;DHT22;3089;48.202;11.510;2022-12-18T12:58:58;-3.70;99.90
6118;DHT22;3089;48.202;11.510;2022-12-18T13:01:35;-4.30;99.90
6118;DHT22;3089;48.202;11.510;2022-12-18T13:04:15;-4.20;99.90
6118;DHT22;3089;48.202;11.510;2022-12-18T13:06:52;-3.60;99.90
6118;DHT22;3089;48.202;11.510;2022-12-18T13:09:21;-3.70;99.90
6118;DHT22;3089;48.202;11.510;2022-12-18T13:11:49;-3.40;99.90
6118;DHT22;3089;48.202;11.510;2022-12-18T13:14:37;-2.80;99.90
6118;DHT22;3089;48.202;11.510;2022-12-18T13:17:28;-2.40;99.90
6118;DHT22;3089;48.202;11.510;2022-12-18T13:20:09;-3.40;99.90
6118;DHT22;3089;48.202;11.510;2022-12-18T13:22:42;-3.20;99.90
6118;DHT22;3089;48.202;11.510;2022-12-18T13:25:32;-3.00;99.90
6118;DHT22;3089;48.202;11.510;2022-12-18T13:28:11;-4.10;99.90
6118;DHT22;3089;48.202;11.510;2022-12-18T13:31:05;-3.40;99.90
6118;DHT22;3089;48.202;11.510;2022-12-18T13:33:41;-3.40;99.90
6118;DHT22;3089;48.202;11.510;2022-12-18T13:36:32;-3.90;99.90
6118;DHT22;3089;48.202;11.510;2022-12-18T13:39:34;-2.50;99.90
6118;DHT22;3089;48.202;11.510;2022-12-18T13:42:37;-2.60;99.90
6118;DHT22;3089;48.202;11.510;2022-12-18T13:45:40;-2.50;99.90
6118;DHT22;3089;48.202;11.510;2022-12-18T13:48:22;-3.80;99.90
6118;DHT22;3089;48.202;11.510;2022-12-18T13:50:55;-3.80;99.90
6118;DHT22;3089;48.202;11.510;2022-12-18T13:53:27;-3.90;99.90
6118;DHT22;3089;48.202;11.510;2022-12-18T13:55:56;-2.90;99.90
6118;DHT22;3089;48.202;11.510;2022-12-18T13:58:24;-2.80;99.90
6118;DHT22;3089;48.202;11.510;2022-12-18T14:00:52;-3.30;99.90
6118;DHT22;3089;48.202;11.510;2022-12-18T14:03:25;-4.30;99.90
6118;DHT22;3089;48.202;11.510;2022-12-18T14:05:59;-4.10;99.90
6118;DHT22;3089;48.202;11.510;2022-12-18T14:08:33;-3.70;99.90
6118;DHT22;3089;48.202;11.510;2022-12-18T14:11:04;-4.20;99.90
6118;DHT22;3089;48.202;11.510;2022-12-18T14:13:37;-3.70;99.90
6118;DHT22;3089;48.202;11.510;2022-12-18T14:16:11;-3.40;99.90
6118;DHT22;3089;48.202;11.510;2022-12-18T14:18:45;-3.60;99.90
6118;DHT22;3089;48.202;11.510;2022-12-18T14:21:31;-3.90;99.90
6118;DHT22;3089;48.202;11.510;2022-12-18T14:24:06;-3.00;99.90
6118;DHT22;3089;48.202;11.510;2022-12-18T14:26:40;-4.00;99.90
6118;DHT22;3089;48.202;11.510;2022-12-18T14:29:21;-3.60;99.90
6118;DHT22;3089;48.202;11.510;2022-12-18T14:32:09;-4.00;99.90
6118;DHT22;3089;48.202;11.510;2022-12-18T14:34:45;-3.70;99.90
6118;DHT22;3089;48.202;11.510;2022-12-18T14:37:15;-2.80;99.90
6118;DHT22;3089;48.202;11.510;2022-12-18T14:39:55;-3.10;99.90
6118;DHT22;3089;48.202;11.510;2022-12-18T14:42:25;-4.30;99.90
6118;DHT22;3089;48.202;11.510;2022-12-18T14:45:33;-3.70;99.90
6118;DHT22;3089;48.202;11.510;2022-12-18T14:48:08;-3.60;99.90
6118;DHT22;3089;48.202;11.510;2022-12-18T14:50:40;-2.90;99.90
6118;DHT22;3089;48.202;11.510;2022-12-18T14:53:19;-3.30;99.90
6118;DHT22;3089;48.202;11.510;2022-12-18T14:55:48;-3.70;99.90
6118;DHT22;3089;48.202;11.510;2022-12-18T14:58:17;-3.80;99.90
6118;DHT22;3089;48.202;11.510;2022-12-18T15:00:45;-3.40;99.90
6118;DHT22;3089;48.202;11.510;2022-12-18T15:03:18;-3.60;99.90
6118;DHT22;3089;48.202;11.510;2022-12-18T15:05:48;-4.30;99.90
6118;DHT22;3089;48.202;11.510;2022-12-18T15:08:29;-4.40;99.90
6118;DHT22;3089;48.202;11.510;2022-12-18T15:10:58;-3.90;99.90
6118;DHT22;3089;48.202;11.510;2022-12-18T15:13:27;-3.40;99.90
6118;DHT22;3089;48.202;11.510;2022-12-18T15:15:55;-2.70;99.90
6118;DHT22;3089;48.202;11.510;2022-12-18T15:18:31;-2.80;99.90
6118;DHT22;3089;48.202;11.510;2022-12-18T15:21:08;-3.40;99.90
6118;DHT22;3089;48.202;11.510;2022-12-18T15:23:45;-4.10;99.90
6118;DHT22;3089;48.202;11.510;2022-12-18T15:26:15;-3.60;99.90
6118;DHT22;3089;48.202;11.510;2022-12-18T15:28:45;-3.50;99.90
6118;DHT22;3089;48.202;11.510;2022-12-18T15:31:28;-3.10;99.90
6118;DHT22;3089;48.202;11.510;2022-12-18T15:34:05;-2.70;99.90
6118;DHT22;3089;48.202;11.510;2022-12-18T15:36:38;-2.50;99.90
6118;DHT22;3089;48.202;11.510;2022-12-18T15:39:09;-2.60;99.90
6118;DHT22;3089;48.202;11.510;2022-12-18T15:41:38;-2.40;99.90
6118;DHT22;3089;48.202;11.510;2022-12-18T15:44:22;-2.40;99.90
6118;DHT22;3089;48.202;11.510;2022-12-18T15:46:49;-2.40;99.90
6118;DHT22;3089;48.202;11.510;2022-12-18T15:49:17;-2.50;99.90
6118;DHT22;3089;48.202;11.510;2022-12-18T15:51:49;-2.50;99.90
6118;DHT22;3089;48.202;11.510;2022-12-18T15:54:18;-2.50;99.90
6118;DHT22;3089;48.202;11.510;2022-12-18T15:57:09;-2.60;99.90
6118;DHT22;3089;48.202;11.510;2022-12-18T15:59:52;-2.80;99.90
6118;DHT22;3089;48.202;11.510;2022-12-18T16:02:22;-3.90;99.90
6118;DHT22;3089;48.202;11.510;2022-12-18T16:04:50;-3.70;99.90
6118;DHT22;3089;48.202;11.510;2022-12-18T16:07:20;-3.40;99.90
6118;DHT22;3089;48.202;11.510;2022-12-18T16:09:51;-4.10;99.90
6118;DHT22;3089;48.202;11.510;2022-12-18T16:12:24;-3.40;99.90
6118;DHT22;3089;48.202;11.510;2022-12-18T16:14:52;-3.90;99.90
6118;DHT22;3089;48.202;11.510;2022-12-18T16:17:20;-4.60;99.90
6118;DHT22;3089;48.202;11.510;2022-12-18T16:19:48;-3.60;99.90